Terminal Aerodrome Forecast
Issued by NWS

Home | Current Version | Previous Version | Text Only | Print | Product List | Glossary On
Versions: 1 2 3 4 5 6 7 8 9 10 11 12 13 14 15 16 17 18 19 20
000
FTUS41 KPBZ 252300
TAFLBE
TAF
KLBE 252320Z 2600/2624 24010G20KT P6SM SCT045
     FM260100 28009KT P6SM FEW040 WS020/29035KT
     FM260800 30010KT P6SM SKC
     FM261400 28012G20KT P6SM FEW040=

USA.gov is the U.S. government's official web portal to all federal, state and local government web resources and services.